Ashland, MT

7:23 AM MDT on August 23, 2014 (GMT -0600)
RAWS FORT HOWES MT US | Change Station
CLOSE
Current Station
Personal Weather Station
Location: Otter, MT
Elevation: 3443 ft
Nearby Weather Stations

Elev 3443 ft 45.30 °N, 106.16 °W | Updated 56 minutes ago

Overcast
Overcast
59 °F
Feels Like 59 °F
N
3
Wind Variable Wind from NE
Gusts 6.0 mph

Today
High -- | Low -- °F
--% Chance of Precip.
Yesterday
High -- | Low -- °F
Precip. -- in
6:15 AM 7:58 PM
Waning Crescent, 4% visible
Pressure 29.90 in
Visibility 10.0 miles
Clouds Few 800 ft
Overcast 1200 ft
Dew Point 58 °F
Humidity 98%
Rainfall 0.04 in
Snow Depth Not available.
UV 0 out of 12
Pollen .90 out of 12
Air Quality Not available.
Flu Activity Not available.
SPECI KMLS 231317Z AUTO 06007KT 10SM FEW008 OVC012 17/16 A2990 RMK AO2 T01720161

More Conditions Fewer Conditions

Pressure 29.90 in
Visibility 10.0 miles
Clouds Few 800 ft
Overcast 1200 ft
Dew Point 58 °F
Humidity 98%
Rainfall 0.04 in
Snow Depth Not available.
UV 0 out of 12
Pollen .90 out of 12
Air Quality Not available.
Flu Activity Not available.
SPECI KMLS 231317Z AUTO 06007KT 10SM FEW008 OVC012 17/16 A2990 RMK AO2 T01720161

More Conditions Fewer Conditions

10-Day Weather Forecast

Almanac

Astronomy

Aug. 23, 2014 Rise Set
Actual Time 6:15 AM MDT 7:58 PM MDT
Civil Twilight 5:43 AM MDT 8:30 PM MDT
Nautical Twilight 5:05 AM MDT 9:08 PM MDT
Astronomical Twilight 4:23 AM MDT 9:49 PM MDT
Moon 4:32 AM MDT 6:45 PM MDT
Length of Visible Light 14h 46m
Length of Day
13h 43m
Tomorrow will be 2m 59s shorter.
Waning Crescent, 4% of the Moon is Illuminated
Today
Waning Crescent
Aug 25
New
Sep 2
First Quarter
Sep 8
Full
Sep 15
Last Quarter

Today's Extremes

State Highs State Lows

Community

WunderPhotos

Upload Photos

1,746,451 photos uploaded!

WunderBlogs® & News

By Dr. Jeff Masters
Director of Meteorology, Weather Underground
By Kari Strenfel
Meteorologist, Weather Underground
By Christopher C. Burt
Weather Historian, Weather Underground
August 23, 2014
August 23, 2014
August 23, 2014

Nearby

Snow Depth

Station Depth Elevation
Cole Creek 1 in 7850 ft
Burnt Mountain 0 in 5880 ft
Crystal Lake 1 in 6050 ft
White Mill 2 in 8700 ft
Fisher Creek 0 in 9100 ft

Earthquake Activity

City Distance Mag. Time & Date
No recent earthquake activity has been reported nearby.
Minimum magnitude displayed is 2.5.

Coastal Water Temperatures

Place Temperature
No Stations Reporting

Nearby Weather Stations